sensor_id;sensor_type;location;lat;lon;timestamp;P1;durP1;ratioP1;P2;durP2;ratioP2
55053;SDS011;40954;45.668;18.980;2022-07-18T00:02:22;6.13;;;1.80;;
55053;SDS011;40954;45.668;18.980;2022-07-18T00:04:48;2.65;;;1.85;;
55053;SDS011;40954;45.668;18.980;2022-07-18T00:07:14;4.68;;;2.67;;
55053;SDS011;40954;45.668;18.980;2022-07-18T00:09:41;2.92;;;1.67;;
55053;SDS011;40954;45.668;18.980;2022-07-18T00:12:08;2.25;;;1.33;;
55053;SDS011;40954;45.668;18.980;2022-07-18T00:14:34;2.40;;;1.60;;
55053;SDS011;40954;45.668;18.980;2022-07-18T00:17:01;2.10;;;1.40;;
55053;SDS011;40954;45.668;18.980;2022-07-18T00:19:27;4.38;;;1.52;;
55053;SDS011;40954;45.668;18.980;2022-07-18T00:21:53;6.75;;;1.48;;
55053;SDS011;40954;45.668;18.980;2022-07-18T00:24:19;4.47;;;1.15;;
55053;SDS011;40954;45.668;18.980;2022-07-18T00:26:45;3.33;;;1.48;;
55053;SDS011;40954;45.668;18.980;2022-07-18T00:29:11;1.10;;;1.00;;
55053;SDS011;40954;45.668;18.980;2022-07-18T00:31:37;1.90;;;1.70;;
55053;SDS011;40954;45.668;18.980;2022-07-18T00:34:04;1.20;;;1.10;;
55053;SDS011;40954;45.668;18.980;2022-07-18T00:36:30;3.78;;;1.63;;
55053;SDS011;40954;45.668;18.980;2022-07-18T00:38:56;3.58;;;1.58;;
55053;SDS011;40954;45.668;18.980;2022-07-18T00:41:23;2.45;;;1.70;;
55053;SDS011;40954;45.668;18.980;2022-07-18T00:43:49;3.83;;;1.85;;
55053;SDS011;40954;45.668;18.980;2022-07-18T00:46:15;2.58;;;1.83;;
55053;SDS011;40954;45.668;18.980;2022-07-18T00:48:42;3.60;;;1.60;;
55053;SDS011;40954;45.668;18.980;2022-07-18T00:51:08;3.25;;;1.70;;
55053;SDS011;40954;45.668;18.980;2022-07-18T00:53:34;4.50;;;1.90;;
55053;SDS011;40954;45.668;18.980;2022-07-18T00:56:01;9.75;;;1.70;;
55053;SDS011;40954;45.668;18.980;2022-07-18T00:58:28;3.25;;;1.55;;
55053;SDS011;40954;45.668;18.980;2022-07-18T01:00:54;4.03;;;1.08;;
55053;SDS011;40954;45.668;18.980;2022-07-18T01:03:39;4.30;;;1.70;;
55053;SDS011;40954;45.668;18.980;2022-07-18T01:06:05;2.75;;;1.88;;
55053;SDS011;40954;45.668;18.980;2022-07-18T01:08:31;3.38;;;1.73;;
55053;SDS011;40954;45.668;18.980;2022-07-18T01:10:58;2.95;;;1.83;;
55053;SDS011;40954;45.668;18.980;2022-07-18T01:13:24;4.25;;;1.42;;
55053;SDS011;40954;45.668;18.980;2022-07-18T01:15:50;3.85;;;1.80;;
55053;SDS011;40954;45.668;18.980;2022-07-18T01:18:16;2.17;;;1.58;;
55053;SDS011;40954;45.668;18.980;2022-07-18T01:20:42;3.50;;;1.67;;
55053;SDS011;40954;45.668;18.980;2022-07-18T01:23:08;1.67;;;1.35;;
55053;SDS011;40954;45.668;18.980;2022-07-18T01:25:34;3.17;;;1.70;;
55053;SDS011;40954;45.668;18.980;2022-07-18T01:28:01;3.33;;;1.40;;
55053;SDS011;40954;45.668;18.980;2022-07-18T01:30:27;4.78;;;1.70;;
55053;SDS011;40954;45.668;18.980;2022-07-18T01:32:56;2.05;;;1.48;;
55053;SDS011;40954;45.668;18.980;2022-07-18T01:35:23;4.97;;;1.67;;
55053;SDS011;40954;45.668;18.980;2022-07-18T01:37:51;3.25;;;1.73;;
55053;SDS011;40954;45.668;18.980;2022-07-18T01:40:17;3.15;;;1.77;;
55053;SDS011;40954;45.668;18.980;2022-07-18T01:42:43;4.78;;;1.50;;
55053;SDS011;40954;45.668;18.980;2022-07-18T01:45:09;5.07;;;1.55;;
55053;SDS011;40954;45.668;18.980;2022-07-18T01:47:35;5.80;;;1.52;;
55053;SDS011;40954;45.668;18.980;2022-07-18T01:50:02;5.28;;;1.33;;
55053;SDS011;40954;45.668;18.980;2022-07-18T01:52:28;2.92;;;1.52;;
55053;SDS011;40954;45.668;18.980;2022-07-18T01:54:54;2.00;;;1.40;;
55053;SDS011;40954;45.668;18.980;2022-07-18T01:57:20;5.93;;;1.38;;
55053;SDS011;40954;45.668;18.980;2022-07-18T01:59:47;2.42;;;1.20;;
55053;SDS011;40954;45.668;18.980;2022-07-18T02:02:13;2.63;;;1.33;;
55053;SDS011;40954;45.668;18.980;2022-07-18T02:04:39;1.55;;;1.13;;
55053;SDS011;40954;45.668;18.980;2022-07-18T02:07:23;1.75;;;1.52;;
55053;SDS011;40954;45.668;18.980;2022-07-18T02:09:49;2.05;;;1.35;;
55053;SDS011;40954;45.668;18.980;2022-07-18T02:12:15;3.10;;;1.33;;
55053;SDS011;40954;45.668;18.980;2022-07-18T02:14:42;2.90;;;1.23;;
55053;SDS011;40954;45.668;18.980;2022-07-18T02:17:08;4.35;;;1.67;;
55053;SDS011;40954;45.668;18.980;2022-07-18T02:19:34;2.92;;;1.77;;
55053;SDS011;40954;45.668;18.980;2022-07-18T02:22:00;3.28;;;1.90;;
55053;SDS011;40954;45.668;18.980;2022-07-18T02:24:26;4.90;;;1.88;;
55053;SDS011;40954;45.668;18.980;2022-07-18T02:26:52;2.72;;;1.75;;
55053;SDS011;40954;45.668;18.980;2022-07-18T02:29:18;3.30;;;1.70;;
55053;SDS011;40954;45.668;18.980;2022-07-18T02:31:44;1.98;;;1.45;;
55053;SDS011;40954;45.668;18.980;2022-07-18T02:34:10;5.70;;;3.17;;
55053;SDS011;40954;45.668;18.980;2022-07-18T02:36:37;1.20;;;1.08;;
55053;SDS011;40954;45.668;18.980;2022-07-18T02:39:04;3.45;;;1.08;;
55053;SDS011;40954;45.668;18.980;2022-07-18T02:41:30;3.42;;;1.52;;
55053;SDS011;40954;45.668;18.980;2022-07-18T02:43:56;1.50;;;1.40;;
55053;SDS011;40954;45.668;18.980;2022-07-18T02:46:22;5.10;;;1.20;;
55053;SDS011;40954;45.668;18.980;2022-07-18T02:48:49;1.70;;;1.60;;
55053;SDS011;40954;45.668;18.980;2022-07-18T02:51:15;1.55;;;1.40;;
55053;SDS011;40954;45.668;18.980;2022-07-18T02:53:41;2.45;;;1.63;;
55053;SDS011;40954;45.668;18.980;2022-07-18T02:56:07;2.80;;;1.60;;
55053;SDS011;40954;45.668;18.980;2022-07-18T02:58:33;1.75;;;1.48;;
55053;SDS011;40954;45.668;18.980;2022-07-18T03:00:59;2.10;;;1.60;;
55053;SDS011;40954;45.668;18.980;2022-07-18T03:03:25;3.08;;;1.60;;
55053;SDS011;40954;45.668;18.980;2022-07-18T03:05:51;4.35;;;1.73;;
55053;SDS011;40954;45.668;18.980;2022-07-18T03:08:17;4.43;;;1.50;;
55053;SDS011;40954;45.668;18.980;2022-07-18T03:10:44;4.07;;;1.27;;
55053;SDS011;40954;45.668;18.980;2022-07-18T03:13:10;5.25;;;1.65;;
55053;SDS011;40954;45.668;18.980;2022-07-18T03:15:37;1.35;;;1.25;;
55053;SDS011;40954;45.668;18.980;2022-07-18T03:18:03;2.50;;;1.50;;
55053;SDS011;40954;45.668;18.980;2022-07-18T03:20:29;3.67;;;1.67;;
55053;SDS011;40954;45.668;18.980;2022-07-18T03:22:56;2.30;;;1.45;;
55053;SDS011;40954;45.668;18.980;2022-07-18T03:25:22;2.47;;;1.33;;
55053;SDS011;40954;45.668;18.980;2022-07-18T03:27:48;1.50;;;1.40;;
55053;SDS011;40954;45.668;18.980;2022-07-18T03:30:14;3.55;;;1.52;;
55053;SDS011;40954;45.668;18.980;2022-07-18T03:32:40;1.55;;;1.45;;
55053;SDS011;40954;45.668;18.980;2022-07-18T03:35:06;5.53;;;1.55;;
55053;SDS011;40954;45.668;18.980;2022-07-18T03:37:32;3.72;;;1.63;;
55053;SDS011;40954;45.668;18.980;2022-07-18T03:39:58;2.63;;;1.83;;
55053;SDS011;40954;45.668;18.980;2022-07-18T03:42:24;4.97;;;1.52;;
55053;SDS011;40954;45.668;18.980;2022-07-18T03:44:50;2.17;;;1.60;;
55053;SDS011;40954;45.668;18.980;2022-07-18T03:47:17;3.72;;;1.77;;
55053;SDS011;40954;45.668;18.980;2022-07-18T03:49:43;2.47;;;1.30;;
55053;SDS011;40954;45.668;18.980;2022-07-18T03:52:09;4.95;;;1.75;;
55053;SDS011;40954;45.668;18.980;2022-07-18T03:54:35;6.40;;;2.53;;
55053;SDS011;40954;45.668;18.980;2022-07-18T03:57:01;2.42;;;1.75;;
55053;SDS011;40954;45.668;18.980;2022-07-18T03:59:27;1.95;;;1.45;;
55053;SDS011;40954;45.668;18.980;2022-07-18T04:01:53;4.35;;;1.58;;
55053;SDS011;40954;45.668;18.980;2022-07-18T04:04:19;9.15;;;2.67;;
55053;SDS011;40954;45.668;18.980;2022-07-18T04:06:46;6.10;;;3.75;;
55053;SDS011;40954;45.668;18.980;2022-07-18T04:09:12;8.82;;;4.25;;
55053;SDS011;40954;45.668;18.980;2022-07-18T04:11:38;7.32;;;4.28;;
55053;SDS011;40954;45.668;18.980;2022-07-18T04:14:04;8.45;;;4.22;;
55053;SDS011;40954;45.668;18.980;2022-07-18T04:16:30;6.25;;;3.53;;
55053;SDS011;40954;45.668;18.980;2022-07-18T04:18:56;7.35;;;3.80;;
55053;SDS011;40954;45.668;18.980;2022-07-18T04:21:23;6.38;;;3.10;;
55053;SDS011;40954;45.668;18.980;2022-07-18T04:23:49;5.63;;;2.50;;
55053;SDS011;40954;45.668;18.980;2022-07-18T04:26:15;7.13;;;2.25;;
55053;SDS011;40954;45.668;18.980;2022-07-18T04:28:41;3.75;;;2.35;;
55053;SDS011;40954;45.668;18.980;2022-07-18T04:31:07;5.10;;;2.45;;
55053;SDS011;40954;45.668;18.980;2022-07-18T04:33:33;2.90;;;1.88;;
55053;SDS011;40954;45.668;18.980;2022-07-18T04:35:59;2.47;;;2.25;;
55053;SDS011;40954;45.668;18.980;2022-07-18T04:38:25;4.95;;;2.05;;
55053;SDS011;40954;45.668;18.980;2022-07-18T04:40:51;3.00;;;2.15;;
55053;SDS011;40954;45.668;18.980;2022-07-18T04:43:17;5.07;;;1.98;;
55053;SDS011;40954;45.668;18.980;2022-07-18T04:45:43;4.78;;;1.58;;
55053;SDS011;40954;45.668;18.980;2022-07-18T04:48:09;4.85;;;1.65;;
55053;SDS011;40954;45.668;18.980;2022-07-18T04:50:35;5.78;;;1.75;;
55053;SDS011;40954;45.668;18.980;2022-07-18T04:53:01;3.97;;;1.70;;
55053;SDS011;40954;45.668;18.980;2022-07-18T04:55:28;8.48;;;2.63;;
55053;SDS011;40954;45.668;18.980;2022-07-18T04:57:54;2.63;;;2.20;;
55053;SDS011;40954;45.668;18.980;2022-07-18T05:00:22;3.78;;;2.08;;
55053;SDS011;40954;45.668;18.980;2022-07-18T05:02:49;2.63;;;2.30;;
55053;SDS011;40954;45.668;18.980;2022-07-18T05:05:16;3.15;;;2.15;;
55053;SDS011;40954;45.668;18.980;2022-07-18T05:07:44;4.20;;;2.47;;
55053;SDS011;40954;45.668;18.980;2022-07-18T05:10:11;5.18;;;2.20;;
55053;SDS011;40954;45.668;18.980;2022-07-18T05:12:38;2.78;;;2.20;;
55053;SDS011;40954;45.668;18.980;2022-07-18T05:15:05;2.65;;;2.22;;
55053;SDS011;40954;45.668;18.980;2022-07-18T05:17:31;3.83;;;2.13;;
55053;SDS011;40954;45.668;18.980;2022-07-18T05:19:57;4.90;;;2.55;;
55053;SDS011;40954;45.668;18.980;2022-07-18T05:22:23;3.85;;;2.80;;
55053;SDS011;40954;45.668;18.980;2022-07-18T05:24:50;6.38;;;3.22;;
55053;SDS011;40954;45.668;18.980;2022-07-18T05:27:16;6.30;;;3.05;;
55053;SDS011;40954;45.668;18.980;2022-07-18T05:29:42;5.03;;;2.97;;
55053;SDS011;40954;45.668;18.980;2022-07-18T05:32:08;4.05;;;2.30;;
55053;SDS011;40954;45.668;18.980;2022-07-18T05:34:35;3.15;;;2.03;;
55053;SDS011;40954;45.668;18.980;2022-07-18T05:37:01;2.47;;;2.03;;
55053;SDS011;40954;45.668;18.980;2022-07-18T05:39:28;5.13;;;2.95;;
55053;SDS011;40954;45.668;18.980;2022-07-18T05:41:54;7.05;;;2.70;;
55053;SDS011;40954;45.668;18.980;2022-07-18T05:44:20;4.40;;;2.00;;
55053;SDS011;40954;45.668;18.980;2022-07-18T05:46:46;5.13;;;2.22;;
55053;SDS011;40954;45.668;18.980;2022-07-18T05:49:13;8.10;;;2.33;;
55053;SDS011;40954;45.668;18.980;2022-07-18T05:51:39;3.20;;;2.05;;
55053;SDS011;40954;45.668;18.980;2022-07-18T05:54:05;2.70;;;1.98;;
55053;SDS011;40954;45.668;18.980;2022-07-18T05:56:31;2.83;;;1.60;;
55053;SDS011;40954;45.668;18.980;2022-07-18T05:58:57;3.28;;;2.35;;
55053;SDS011;40954;45.668;18.980;2022-07-18T06:01:23;2.63;;;1.65;;
55053;SDS011;40954;45.668;18.980;2022-07-18T06:03:49;4.90;;;2.67;;
55053;SDS011;40954;45.668;18.980;2022-07-18T06:06:16;3.85;;;2.20;;
55053;SDS011;40954;45.668;18.980;2022-07-18T06:08:43;2.40;;;1.80;;
55053;SDS011;40954;45.668;18.980;2022-07-18T06:11:09;1.80;;;1.70;;
55053;SDS011;40954;45.668;18.980;2022-07-18T06:13:36;1.73;;;1.63;;
55053;SDS011;40954;45.668;18.980;2022-07-18T06:16:03;2.33;;;1.92;;
55053;SDS011;40954;45.668;18.980;2022-07-18T06:18:29;2.70;;;1.80;;
55053;SDS011;40954;45.668;18.980;2022-07-18T06:20:55;4.10;;;1.98;;
55053;SDS011;40954;45.668;18.980;2022-07-18T06:23:21;2.70;;;2.10;;
55053;SDS011;40954;45.668;18.980;2022-07-18T06:25:47;3.33;;;2.00;;
55053;SDS011;40954;45.668;18.980;2022-07-18T06:28:13;2.20;;;1.73;;
55053;SDS011;40954;45.668;18.980;2022-07-18T06:30:40;2.25;;;1.80;;
55053;SDS011;40954;45.668;18.980;2022-07-18T06:33:06;1.45;;;1.33;;
55053;SDS011;40954;45.668;18.980;2022-07-18T06:35:33;11.57;;;2.40;;
55053;SDS011;40954;45.668;18.980;2022-07-18T06:37:59;3.53;;;1.60;;
55053;SDS011;40954;45.668;18.980;2022-07-18T06:40:25;2.08;;;1.83;;
55053;SDS011;40954;45.668;18.980;2022-07-18T06:42:52;4.93;;;1.50;;
55053;SDS011;40954;45.668;18.980;2022-07-18T06:45:18;2.65;;;1.90;;
55053;SDS011;40954;45.668;18.980;2022-07-18T06:47:44;2.83;;;1.38;;
55053;SDS011;40954;45.668;18.980;2022-07-18T06:50:11;2.42;;;1.33;;
55053;SDS011;40954;45.668;18.980;2022-07-18T06:52:39;1.75;;;1.48;;
55053;SDS011;40954;45.668;18.980;2022-07-18T06:55:05;5.15;;;1.80;;
55053;SDS011;40954;45.668;18.980;2022-07-18T06:57:31;3.28;;;1.67;;
55053;SDS011;40954;45.668;18.980;2022-07-18T06:59:57;2.97;;;1.77;;
55053;SDS011;40954;45.668;18.980;2022-07-18T07:02:24;6.00;;;2.28;;
55053;SDS011;40954;45.668;18.980;2022-07-18T07:04:50;1.58;;;1.30;;
55053;SDS011;40954;45.668;18.980;2022-07-18T07:07:16;2.65;;;1.70;;
55053;SDS011;40954;45.668;18.980;2022-07-18T07:09:43;2.28;;;1.40;;
55053;SDS011;40954;45.668;18.980;2022-07-18T07:12:09;2.75;;;1.35;;
55053;SDS011;40954;45.668;18.980;2022-07-18T07:14:35;3.03;;;1.58;;
55053;SDS011;40954;45.668;18.980;2022-07-18T07:17:01;4.00;;;1.33;;
55053;SDS011;40954;45.668;18.980;2022-07-18T07:19:27;3.70;;;1.70;;
55053;SDS011;40954;45.668;18.980;2022-07-18T07:21:53;2.08;;;1.88;;
55053;SDS011;40954;45.668;18.980;2022-07-18T07:24:19;3.88;;;1.60;;
55053;SDS011;40954;45.668;18.980;2022-07-18T07:26:46;1.85;;;1.73;;
55053;SDS011;40954;45.668;18.980;2022-07-18T07:29:12;3.67;;;1.98;;
55053;SDS011;40954;45.668;18.980;2022-07-18T07:31:38;1.88;;;1.70;;
55053;SDS011;40954;45.668;18.980;2022-07-18T07:34:04;5.05;;;3.35;;
55053;SDS011;40954;45.668;18.980;2022-07-18T07:36:30;6.53;;;4.65;;
55053;SDS011;40954;45.668;18.980;2022-07-18T07:38:56;3.72;;;2.25;;
55053;SDS011;40954;45.668;18.980;2022-07-18T07:41:22;7.90;;;2.92;;
55053;SDS011;40954;45.668;18.980;2022-07-18T07:43:48;4.78;;;2.00;;
55053;SDS011;40954;45.668;18.980;2022-07-18T07:46:14;3.20;;;2.50;;
55053;SDS011;40954;45.668;18.980;2022-07-18T07:48:40;4.38;;;1.73;;
55053;SDS011;40954;45.668;18.980;2022-07-18T07:51:08;3.47;;;2.00;;
55053;SDS011;40954;45.668;18.980;2022-07-18T07:53:34;2.33;;;1.50;;
55053;SDS011;40954;45.668;18.980;2022-07-18T07:56:00;2.67;;;2.17;;
55053;SDS011;40954;45.668;18.980;2022-07-18T07:58:27;1.88;;;1.70;;
55053;SDS011;40954;45.668;18.980;2022-07-18T08:00:53;3.83;;;1.95;;
55053;SDS011;40954;45.668;18.980;2022-07-18T08:03:19;5.85;;;2.42;;
55053;SDS011;40954;45.668;18.980;2022-07-18T08:05:47;3.78;;;1.90;;
55053;SDS011;40954;45.668;18.980;2022-07-18T08:08:14;2.50;;;1.50;;
55053;SDS011;40954;45.668;18.980;2022-07-18T08:10:40;2.08;;;1.63;;
55053;SDS011;40954;45.668;18.980;2022-07-18T08:13:06;2.53;;;1.40;;
55053;SDS011;40954;45.668;18.980;2022-07-18T08:15:32;2.65;;;1.70;;
55053;SDS011;40954;45.668;18.980;2022-07-18T08:17:58;4.20;;;1.77;;
55053;SDS011;40954;45.668;18.980;2022-07-18T08:20:25;5.78;;;2.08;;
55053;SDS011;40954;45.668;18.980;2022-07-18T08:25:20;1.17;;;1.10;;
55053;SDS011;40954;45.668;18.980;2022-07-18T08:27:46;2.13;;;1.10;;
55053;SDS011;40954;45.668;18.980;2022-07-18T08:30:13;2.58;;;1.48;;
55053;SDS011;40954;45.668;18.980;2022-07-18T08:32:39;1.83;;;1.17;;
55053;SDS011;40954;45.668;18.980;2022-07-18T08:35:06;5.38;;;1.73;;
55053;SDS011;40954;45.668;18.980;2022-07-18T08:37:32;4.05;;;1.30;;
55053;SDS011;40954;45.668;18.980;2022-07-18T08:39:58;2.03;;;1.10;;
55053;SDS011;40954;45.668;18.980;2022-07-18T08:42:25;4.70;;;1.15;;
55053;SDS011;40954;45.668;18.980;2022-07-18T08:44:52;2.45;;;1.20;;
55053;SDS011;40954;45.668;18.980;2022-07-18T08:47:20;2.13;;;1.08;;
55053;SDS011;40954;45.668;18.980;2022-07-18T08:49:47;2.45;;;1.15;;
55053;SDS011;40954;45.668;18.980;2022-07-18T08:52:13;6.20;;;1.27;;
55053;SDS011;40954;45.668;18.980;2022-07-18T08:54:40;1.27;;;1.17;;
55053;SDS011;40954;45.668;18.980;2022-07-18T08:57:06;1.58;;;1.33;;
55053;SDS011;40954;45.668;18.980;2022-07-18T08:59:32;1.40;;;1.00;;
55053;SDS011;40954;45.668;18.980;2022-07-18T09:01:58;2.42;;;1.23;;
55053;SDS011;40954;45.668;18.980;2022-07-18T09:04:33;1.83;;;1.33;;
55053;SDS011;40954;45.668;18.980;2022-07-18T09:06:59;1.17;;;0.82;;
55053;SDS011;40954;45.668;18.980;2022-07-18T09:09:25;2.92;;;1.50;;
55053;SDS011;40954;45.668;18.980;2022-07-18T09:11:53;1.70;;;1.23;;
55053;SDS011;40954;45.668;18.980;2022-07-18T09:14:29;6.20;;;1.23;;
55053;SDS011;40954;45.668;18.980;2022-07-18T09:19:27;1.58;;;1.23;;
55053;SDS011;40954;45.668;18.980;2022-07-18T09:21:53;1.27;;;1.13;;
55053;SDS011;40954;45.668;18.980;2022-07-18T09:24:19;2.58;;;1.10;;
55053;SDS011;40954;45.668;18.980;2022-07-18T09:26:45;2.03;;;0.80;;
55053;SDS011;40954;45.668;18.980;2022-07-18T09:29:15;1.48;;;1.05;;
55053;SDS011;40954;45.668;18.980;2022-07-18T09:31:48;1.95;;;0.98;;
55053;SDS011;40954;45.668;18.980;2022-07-18T09:34:15;1.75;;;0.98;;
55053;SDS011;40954;45.668;18.980;2022-07-18T09:36:57;2.17;;;1.08;;
55053;SDS011;40954;45.668;18.980;2022-07-18T09:39:23;3.33;;;1.02;;
55053;SDS011;40954;45.668;18.980;2022-07-18T09:41:49;1.38;;;1.27;;
55053;SDS011;40954;45.668;18.980;2022-07-18T09:44:16;9.55;;;1.75;;
55053;SDS011;40954;45.668;18.980;2022-07-18T09:46:59;0.82;;;0.82;;
55053;SDS011;40954;45.668;18.980;2022-07-18T09:49:28;2.67;;;1.00;;
55053;SDS011;40954;45.668;18.980;2022-07-18T09:52:05;2.15;;;1.10;;
55053;SDS011;40954;45.668;18.980;2022-07-18T09:54:35;2.03;;;0.68;;
55053;SDS011;40954;45.668;18.980;2022-07-18T09:57:01;1.13;;;1.02;;
55053;SDS011;40954;45.668;18.980;2022-07-18T09:59:27;1.85;;;1.15;;
55053;SDS011;40954;45.668;18.980;2022-07-18T10:01:53;1.60;;;1.20;;
55053;SDS011;40954;45.668;18.980;2022-07-18T10:04:19;0.80;;;0.80;;
55053;SDS011;40954;45.668;18.980;2022-07-18T10:06:45;1.80;;;1.20;;
55053;SDS011;40954;45.668;18.980;2022-07-18T10:09:12;1.23;;;0.90;;
55053;SDS011;40954;45.668;18.980;2022-07-18T10:11:38;3.08;;;1.00;;
55053;SDS011;40954;45.668;18.980;2022-07-18T10:14:04;3.47;;;1.00;;
55053;SDS011;40954;45.668;18.980;2022-07-18T10:16:30;2.58;;;1.00;;
55053;SDS011;40954;45.668;18.980;2022-07-18T10:18:57;1.23;;;1.08;;
55053;SDS011;40954;45.668;18.980;2022-07-18T10:21:24;1.40;;;1.30;;
55053;SDS011;40954;45.668;18.980;2022-07-18T10:23:50;1.15;;;1.05;;
55053;SDS011;40954;45.668;18.980;2022-07-18T10:26:21;7.05;;;1.20;;
55053;SDS011;40954;45.668;18.980;2022-07-18T10:31:26;5.32;;;1.33;;
55053;SDS011;40954;45.668;18.980;2022-07-18T10:33:53;1.15;;;1.02;;
55053;SDS011;40954;45.668;18.980;2022-07-18T10:36:20;7.13;;;1.55;;
55053;SDS011;40954;45.668;18.980;2022-07-18T10:39:06;26.05;;;2.95;;
55053;SDS011;40954;45.668;18.980;2022-07-18T10:57:33;12.43;;;2.92;;
55053;SDS011;40954;45.668;18.980;2022-07-18T11:00:00;1.02;;;0.95;;
55053;SDS011;40954;45.668;18.980;2022-07-18T11:02:37;10.27;;;2.55;;
55053;SDS011;40954;45.668;18.980;2022-07-18T11:05:31;7.30;;;1.98;;
55053;SDS011;40954;45.668;18.980;2022-07-18T11:08:35;11.15;;;2.83;;
55053;SDS011;40954;45.668;18.980;2022-07-18T11:23:49;4.82;;;1.45;;
55053;SDS011;40954;45.668;18.980;2022-07-18T11:26:17;2.67;;;1.50;;
55053;SDS011;40954;45.668;18.980;2022-07-18T11:28:43;3.38;;;1.17;;
55053;SDS011;40954;45.668;18.980;2022-07-18T11:31:12;5.40;;;1.80;;
55053;SDS011;40954;45.668;18.980;2022-07-18T11:33:39;4.65;;;1.80;;
55053;SDS011;40954;45.668;18.980;2022-07-18T11:36:07;1.98;;;1.42;;
55053;SDS011;40954;45.668;18.980;2022-07-18T11:38:34;2.97;;;1.80;;
55053;SDS011;40954;45.668;18.980;2022-07-18T11:41:01;4.07;;;1.38;;
55053;SDS011;40954;45.668;18.980;2022-07-18T11:43:27;5.55;;;1.98;;
55053;SDS011;40954;45.668;18.980;2022-07-18T11:46:00;2.00;;;1.38;;
55053;SDS011;40954;45.668;18.980;2022-07-18T11:48:26;2.95;;;2.00;;
55053;SDS011;40954;45.668;18.980;2022-07-18T11:50:52;3.13;;;1.60;;
55053;SDS011;40954;45.668;18.980;2022-07-18T11:53:18;1.83;;;1.10;;
55053;SDS011;40954;45.668;18.980;2022-07-18T11:55:44;2.22;;;1.42;;
55053;SDS011;40954;45.668;18.980;2022-07-18T11:58:12;2.35;;;1.38;;
55053;SDS011;40954;45.668;18.980;2022-07-18T12:00:39;2.70;;;1.95;;
55053;SDS011;40954;45.668;18.980;2022-07-18T12:03:15;4.90;;;1.80;;
55053;SDS011;40954;45.668;18.980;2022-07-18T12:05:42;2.25;;;1.70;;
55053;SDS011;40954;45.668;18.980;2022-07-18T12:13:43;2.08;;;1.55;;
55053;SDS011;40954;45.668;18.980;2022-07-18T12:18:56;1.85;;;1.35;;
55053;SDS011;40954;45.668;18.980;2022-07-18T12:21:22;2.30;;;1.40;;
55053;SDS011;40954;45.668;18.980;2022-07-18T12:23:49;1.92;;;1.48;;
55053;SDS011;40954;45.668;18.980;2022-07-18T12:26:28;2.90;;;1.35;;
55053;SDS011;40954;45.668;18.980;2022-07-18T12:29:06;2.83;;;1.95;;
55053;SDS011;40954;45.668;18.980;2022-07-18T12:31:37;3.42;;;1.45;;
55053;SDS011;40954;45.668;18.980;2022-07-18T12:34:07;0.80;;;0.75;;
55053;SDS011;40954;45.668;18.980;2022-07-18T12:36:34;1.87;;;1.20;;
55053;SDS011;40954;45.668;18.980;2022-07-18T12:39:00;1.67;;;0.90;;
55053;SDS011;40954;45.668;18.980;2022-07-18T12:41:29;1.98;;;1.10;;
55053;SDS011;40954;45.668;18.980;2022-07-18T12:43:55;6.43;;;1.95;;
55053;SDS011;40954;45.668;18.980;2022-07-18T12:46:21;2.78;;;1.30;;
55053;SDS011;40954;45.668;18.980;2022-07-18T12:48:47;1.35;;;1.25;;
55053;SDS011;40954;45.668;18.980;2022-07-18T12:51:13;1.80;;;1.40;;
55053;SDS011;40954;45.668;18.980;2022-07-18T12:53:40;1.13;;;0.93;;
55053;SDS011;40954;45.668;18.980;2022-07-18T12:56:07;3.63;;;1.83;;
55053;SDS011;40954;45.668;18.980;2022-07-18T12:58:34;5.15;;;2.83;;
55053;SDS011;40954;45.668;18.980;2022-07-18T13:01:00;3.63;;;1.25;;
55053;SDS011;40954;45.668;18.980;2022-07-18T13:03:26;7.65;;;2.15;;
55053;SDS011;40954;45.668;18.980;2022-07-18T13:05:53;1.40;;;1.15;;
55053;SDS011;40954;45.668;18.980;2022-07-18T13:08:19;2.88;;;1.73;;
55053;SDS011;40954;45.668;18.980;2022-07-18T13:10:45;5.68;;;2.30;;
55053;SDS011;40954;45.668;18.980;2022-07-18T13:13:11;7.15;;;2.38;;
55053;SDS011;40954;45.668;18.980;2022-07-18T13:15:37;3.10;;;2.10;;
55053;SDS011;40954;45.668;18.980;2022-07-18T13:18:04;2.53;;;1.48;;
55053;SDS011;40954;45.668;18.980;2022-07-18T13:20:30;4.57;;;2.50;;
55053;SDS011;40954;45.668;18.980;2022-07-18T13:22:56;5.30;;;2.70;;
55053;SDS011;40954;45.668;18.980;2022-07-18T13:25:26;1.75;;;1.00;;
55053;SDS011;40954;45.668;18.980;2022-07-18T13:27:52;1.85;;;1.63;;
55053;SDS011;40954;45.668;18.980;2022-07-18T13:30:18;2.42;;;1.63;;
55053;SDS011;40954;45.668;18.980;2022-07-18T13:32:44;6.38;;;2.35;;
55053;SDS011;40954;45.668;18.980;2022-07-18T13:35:10;7.07;;;1.88;;
55053;SDS011;40954;45.668;18.980;2022-07-18T13:37:37;2.83;;;2.03;;
55053;SDS011;40954;45.668;18.980;2022-07-18T13:40:03;4.00;;;1.83;;
55053;SDS011;40954;45.668;18.980;2022-07-18T13:42:31;6.68;;;2.35;;
55053;SDS011;40954;45.668;18.980;2022-07-18T13:44:57;8.88;;;2.97;;
55053;SDS011;40954;45.668;18.980;2022-07-18T13:47:24;8.93;;;2.00;;
55053;SDS011;40954;45.668;18.980;2022-07-18T13:49:50;2.13;;;1.17;;
55053;SDS011;40954;45.668;18.980;2022-07-18T13:52:16;1.00;;;1.00;;
55053;SDS011;40954;45.668;18.980;2022-07-18T13:54:43;4.00;;;1.13;;
55053;SDS011;40954;45.668;18.980;2022-07-18T13:57:10;4.90;;;1.90;;
55053;SDS011;40954;45.668;18.980;2022-07-18T13:59:36;3.80;;;1.45;;
55053;SDS011;40954;45.668;18.980;2022-07-18T14:02:02;3.35;;;1.52;;
55053;SDS011;40954;45.668;18.980;2022-07-18T14:04:28;2.88;;;1.85;;
55053;SDS011;40954;45.668;18.980;2022-07-18T14:06:54;1.83;;;0.90;;
55053;SDS011;40954;45.668;18.980;2022-07-18T14:09:20;6.70;;;1.77;;
55053;SDS011;40954;45.668;18.980;2022-07-18T14:11:46;2.17;;;1.45;;
55053;SDS011;40954;45.668;18.980;2022-07-18T14:14:12;4.75;;;1.67;;
55053;SDS011;40954;45.668;18.980;2022-07-18T14:16:38;2.53;;;1.33;;
55053;SDS011;40954;45.668;18.980;2022-07-18T14:19:05;3.75;;;1.42;;
55053;SDS011;40954;45.668;18.980;2022-07-18T14:21:31;2.65;;;1.20;;
55053;SDS011;40954;45.668;18.980;2022-07-18T14:23:57;1.63;;;1.08;;
55053;SDS011;40954;45.668;18.980;2022-07-18T14:26:24;1.30;;;1.08;;
55053;SDS011;40954;45.668;18.980;2022-07-18T14:28:51;1.50;;;1.40;;
55053;SDS011;40954;45.668;18.980;2022-07-18T14:31:17;2.42;;;1.42;;
55053;SDS011;40954;45.668;18.980;2022-07-18T14:33:43;1.33;;;1.20;;
55053;SDS011;40954;45.668;18.980;2022-07-18T14:36:09;3.45;;;1.60;;
55053;SDS011;40954;45.668;18.980;2022-07-18T14:38:35;3.28;;;1.48;;
55053;SDS011;40954;45.668;18.980;2022-07-18T14:41:01;3.80;;;1.77;;
55053;SDS011;40954;45.668;18.980;2022-07-18T14:43:27;2.85;;;1.70;;
55053;SDS011;40954;45.668;18.980;2022-07-18T14:45:53;2.90;;;1.67;;
55053;SDS011;40954;45.668;18.980;2022-07-18T14:48:19;2.28;;;1.63;;
55053;SDS011;40954;45.668;18.980;2022-07-18T14:50:45;4.43;;;3.35;;
55053;SDS011;40954;45.668;18.980;2022-07-18T14:53:11;4.10;;;2.28;;
55053;SDS011;40954;45.668;18.980;2022-07-18T14:55:37;4.95;;;1.92;;
55053;SDS011;40954;45.668;18.980;2022-07-18T14:58:03;1.70;;;1.60;;
55053;SDS011;40954;45.668;18.980;2022-07-18T15:00:30;1.88;;;1.42;;
55053;SDS011;40954;45.668;18.980;2022-07-18T15:02:56;4.72;;;2.97;;
55053;SDS011;40954;45.668;18.980;2022-07-18T15:05:22;3.38;;;2.20;;
55053;SDS011;40954;45.668;18.980;2022-07-18T15:07:48;1.67;;;1.33;;
55053;SDS011;40954;45.668;18.980;2022-07-18T15:10:14;3.88;;;1.95;;
55053;SDS011;40954;45.668;18.980;2022-07-18T15:12:40;2.60;;;1.50;;
55053;SDS011;40954;45.668;18.980;2022-07-18T15:15:07;2.00;;;1.65;;
55053;SDS011;40954;45.668;18.980;2022-07-18T15:17:34;2.17;;;1.70;;